Time;durP1;ratioP1;P1;durP2;ratioP2;P2;SDS_P1;SDS_P2;PMS_P1;PMS_P2;Temp;Humidity;BMP_temperature;BMP_pressure;BME280_temperature;BME280_humidity;BME280_pressure;Samples;Min_cycle;Max_cycle;Signal;HPM_P1;HPM_P2
2021/08/14 00:01:23;;;;;;;10.73;9.82;;;24.40;71.00;;;;;;5021133;28;20220;-88
2021/08/14 00:03:48;;;;;;;10.45;9.48;;;24.40;70.80;;;;;;5021304;28;20196;-89
2021/08/14 00:06:16;;;;;;;10.90;10.10;;;24.40;70.90;;;;;;5022505;28;20299;-89
2021/08/14 00:08:43;;;;;;;11.43;10.25;;;24.40;70.80;;;;;;5021213;28;20197;-88
2021/08/14 00:11:09;;;;;;;10.63;9.73;;;24.40;70.50;;;;;;5005134;28;20205;-88
2021/08/14 00:13:35;;;;;;;11.63;10.73;;;24.50;70.50;;;;;;5021890;28;20189;-89
2021/08/14 00:16:01;;;;;;;11.13;10.23;;;24.40;70.30;;;;;;5037757;28;20277;-89
2021/08/14 00:18:26;;;;;;;14.00;12.88;;;24.40;70.30;;;;;;5021990;28;20205;-88
2021/08/14 00:20:52;;;;;;;11.30;10.40;;;24.30;70.80;;;;;;5021272;28;20224;-89
2021/08/14 00:23:18;;;;;;;10.73;9.77;;;24.10;70.90;;;;;;5017542;28;20198;-89
2021/08/14 00:25:44;;;;;;;11.20;10.02;;;24.10;71.70;;;;;;5014210;28;20193;-88
2021/08/14 00:28:09;;;;;;;10.55;9.55;;;24.10;71.10;;;;;;5021363;28;20194;-88
2021/08/14 00:30:35;;;;;;;10.25;9.40;;;24.10;71.50;;;;;;5033481;28;20259;-89
2021/08/14 00:33:01;;;;;;;10.20;9.15;;;23.90;71.80;;;;;;5025554;28;20189;-89
2021/08/14 00:35:27;;;;;;;9.88;9.05;;;23.90;72.00;;;;;;5017270;28;20262;-87
2021/08/14 00:37:53;;;;;;;9.93;9.05;;;23.90;71.60;;;;;;5022029;28;20244;-89
2021/08/14 00:40:18;;;;;;;9.77;8.85;;;23.80;71.70;;;;;;5018385;28;20225;-89
2021/08/14 00:42:44;;;;;;;10.40;9.45;;;23.80;72.00;;;;;;5023870;28;20603;-88
2021/08/14 00:45:10;;;;;;;10.13;9.13;;;23.80;71.60;;;;;;5024468;28;20221;-87
2021/08/14 00:47:41;;;;;;;10.23;9.32;;;23.90;71.40;;;;;;5022585;28;20193;-88
2021/08/14 00:50:07;;;;;;;9.30;8.60;;;23.90;71.30;;;;;;5022792;28;20711;-87
2021/08/14 00:52:33;;;;;;;10.32;8.82;;;23.70;71.60;;;;;;5022045;28;20200;-87
2021/08/14 00:54:58;;;;;;;10.00;8.77;;;23.80;71.50;;;;;;5023059;28;20190;-89
2021/08/14 00:57:25;;;;;;;9.23;8.38;;;23.80;71.70;;;;;;5022416;28;20700;-88
2021/08/14 00:59:52;;;;;;;10.13;9.00;;;23.80;71.10;;;;;;5019605;28;20224;-88
2021/08/14 01:02:18;;;;;;;8.63;7.93;;;23.80;71.40;;;;;;5022619;28;20188;-89
2021/08/14 01:04:46;;;;;;;9.93;9.10;;;23.70;71.80;;;;;;5021754;28;20315;-89
2021/08/14 01:07:12;;;;;;;10.63;9.73;;;23.70;71.60;;;;;;5020387;28;20772;-89
2021/08/14 01:09:38;;;;;;;11.00;8.80;;;23.70;71.70;;;;;;5037748;28;20192;-88
2021/08/14 01:12:04;;;;;;;9.98;9.27;;;23.50;72.20;;;;;;5003836;28;20213;-88
2021/08/14 01:14:32;;;;;;;9.38;8.60;;;23.60;72.40;;;;;;5021466;28;20285;-88
2021/08/14 01:16:58;;;;;;;9.77;8.60;;;23.60;72.20;;;;;;5022250;28;20356;-88
2021/08/14 01:19:25;;;;;;;9.45;8.65;;;23.60;72.20;;;;;;5022609;28;20221;-89
2021/08/14 01:21:52;;;;;;;9.88;8.95;;;23.60;72.00;;;;;;5022659;28;20197;-88
2021/08/14 01:24:19;;;;;;;9.45;8.57;;;23.60;72.10;;;;;;5022064;28;20277;-88
2021/08/14 01:26:45;;;;;;;10.68;9.02;;;23.60;72.30;;;;;;5021989;28;20192;-89
2021/08/14 01:29:11;;;;;;;9.73;8.77;;;23.50;72.00;;;;;;5023093;28;20544;-88
2021/08/14 01:31:36;;;;;;;9.63;8.70;;;23.40;72.10;;;;;;5022038;28;20212;-87
2021/08/14 01:34:02;;;;;;;10.35;9.45;;;23.40;72.10;;;;;;5022539;28;20202;-89
2021/08/14 01:36:28;;;;;;;10.55;9.68;;;23.30;72.30;;;;;;5033426;28;20192;-89
2021/08/14 01:39:03;;;;;;;9.52;8.73;;;23.30;72.80;;;;;;5026728;28;20193;-88
2021/08/14 01:41:29;;;;;;;10.32;8.90;;;23.20;72.70;;;;;;5022191;28;20235;-89
2021/08/14 01:44:01;;;;;;;8.85;8.15;;;23.20;72.60;;;;;;5021240;28;20205;-87
2021/08/14 01:46:30;;;;;;;9.05;8.23;;;23.20;72.70;;;;;;5037521;28;20198;-88
2021/08/14 01:48:55;;;;;;;9.38;8.55;;;23.30;72.40;;;;;;5023241;28;20594;-89
2021/08/14 01:51:21;;;;;;;10.07;9.05;;;23.20;71.30;;;;;;5020682;28;20204;-88
2021/08/14 01:53:52;;;;;;;9.07;8.27;;;23.00;72.30;;;;;;5032900;28;20251;-89
2021/08/14 01:56:19;;;;;;;10.90;9.43;;;22.90;73.10;;;;;;5024426;28;20193;-88
2021/08/14 01:58:45;;;;;;;9.30;8.50;;;22.80;73.60;;;;;;5021675;28;20217;-86
2021/08/14 02:01:11;;;;;;;8.90;8.15;;;22.80;74.00;;;;;;5034949;28;20218;-89
2021/08/14 02:03:38;;;;;;;10.32;9.38;;;22.90;73.70;;;;;;5021517;28;20204;-89
2021/08/14 02:06:06;;;;;;;9.05;8.25;;;23.00;73.20;;;;;;5021994;28;20544;-89
2021/08/14 02:08:35;;;;;;;9.55;8.73;;;23.00;73.20;;;;;;5004316;28;20212;-88
2021/08/14 02:11:22;;;;;;;8.13;7.50;;;23.00;73.20;;;;;;5021581;28;20233;-89
2021/08/14 02:13:50;;;;;;;9.68;8.98;;;23.00;72.20;;;;;;5021179;28;20209;-88
2021/08/14 02:16:16;;;;;;;9.35;8.50;;;23.00;72.60;;;;;;5022822;28;20178;-88
2021/08/14 02:18:41;;;;;;;8.82;8.05;;;23.00;72.70;;;;;;5021618;28;20272;-88
2021/08/14 02:21:08;;;;;;;8.50;7.80;;;23.00;72.80;;;;;;5020851;28;20236;-87
2021/08/14 02:23:35;;;;;;;9.20;8.30;;;23.00;72.60;;;;;;5023279;28;20197;-87
2021/08/14 02:26:01;;;;;;;9.10;8.40;;;22.90;72.60;;;;;;5023332;28;20285;-87
2021/08/14 02:28:28;;;;;;;9.20;8.35;;;22.90;72.40;;;;;;5022660;28;20197;-87
2021/08/14 02:30:57;;;;;;;8.18;7.47;;;23.00;72.30;;;;;;5023720;28;20214;-89
2021/08/14 02:33:24;;;;;;;9.50;8.70;;;23.00;72.30;;;;;;5023235;28;20193;-88
2021/08/14 02:35:50;;;;;;;8.52;7.88;;;22.90;71.80;;;;;;5022982;28;20197;-88
2021/08/14 02:38:16;;;;;;;8.93;8.20;;;22.90;72.20;;;;;;5022168;28;20177;-88
2021/08/14 02:40:42;;;;;;;9.00;8.10;;;22.90;72.50;;;;;;5022875;28;20217;-88
2021/08/14 02:43:07;;;;;;;9.30;8.50;;;22.90;72.90;;;;;;5022628;28;20192;-89
2021/08/14 02:45:33;;;;;;;8.57;7.82;;;22.80;72.50;;;;;;5021139;28;20238;-87
2021/08/14 02:48:00;;;;;;;9.18;8.40;;;22.80;72.80;;;;;;5020778;28;20197;-87
2021/08/14 02:50:27;;;;;;;8.70;8.02;;;22.70;72.70;;;;;;5023076;28;20202;-88
2021/08/14 02:52:53;;;;;;;9.07;8.27;;;22.70;72.80;;;;;;5022343;28;20221;-88
2021/08/14 02:55:19;;;;;;;8.77;7.95;;;22.70;73.20;;;;;;5020574;28;20185;-89
2021/08/14 02:57:45;;;;;;;9.20;8.40;;;22.60;73.40;;;;;;5021049;28;20224;-88
2021/08/14 03:00:12;;;;;;;8.45;7.72;;;22.60;73.70;;;;;;5020145;28;20419;-88
2021/08/14 03:02:37;;;;;;;9.52;8.68;;;22.50;73.60;;;;;;5020982;28;20220;-88
2021/08/14 03:05:04;;;;;;;8.68;8.02;;;22.50;72.20;;;;;;5019420;28;20640;-88
2021/08/14 03:07:31;;;;;;;8.43;7.72;;;22.40;73.40;;;;;;5020042;28;20360;-88
2021/08/14 03:09:57;;;;;;;9.07;8.27;;;22.40;74.00;;;;;;5019319;28;20189;-87
2021/08/14 03:12:23;;;;;;;9.70;8.43;;;22.40;74.00;;;;;;5022550;28;20206;-89
2021/08/14 03:14:48;;;;;;;8.05;7.25;;;22.40;73.90;;;;;;5022091;28;20289;-88
2021/08/14 03:17:14;;;;;;;8.20;7.60;;;22.40;73.60;;;;;;5023399;28;20280;-88
2021/08/14 03:19:40;;;;;;;8.90;8.27;;;22.40;73.60;;;;;;5023353;28;20213;-86
2021/08/14 03:22:06;;;;;;;8.15;7.45;;;22.50;73.10;;;;;;5022861;28;20213;-88
2021/08/14 03:24:32;;;;;;;7.72;7.03;;;22.40;73.20;;;;;;5022512;28;20236;-87
2021/08/14 03:26:58;;;;;;;8.52;7.82;;;22.40;72.80;;;;;;5036270;28;20201;-88
2021/08/14 03:29:23;;;;;;;8.63;7.82;;;22.40;73.40;;;;;;5022075;28;20388;-89
2021/08/14 03:31:49;;;;;;;8.95;8.10;;;22.30;72.80;;;;;;5037157;28;20248;-88
2021/08/14 03:34:15;;;;;;;8.32;7.72;;;22.30;73.20;;;;;;5021917;28;20197;-89
2021/08/14 03:36:41;;;;;;;8.27;7.03;;;22.20;73.80;;;;;;5002794;28;20197;-89
2021/08/14 03:39:06;;;;;;;8.80;8.00;;;22.10;73.50;;;;;;5031431;28;20240;-85
2021/08/14 03:41:34;;;;;;;8.25;7.55;;;22.10;73.70;;;;;;5035960;28;20232;-85
2021/08/14 03:44:00;;;;;;;9.23;8.43;;;22.10;73.80;;;;;;5031918;28;20257;-89
2021/08/14 03:46:26;;;;;;;8.48;7.78;;;22.10;73.70;;;;;;5021899;28;20193;-88
2021/08/14 03:48:51;;;;;;;9.23;8.35;;;22.20;73.80;;;;;;5019055;28;20261;-88
2021/08/14 03:51:17;;;;;;;8.93;8.13;;;22.20;73.70;;;;;;5029015;28;20216;-89
2021/08/14 03:53:43;;;;;;;11.35;10.40;;;22.20;73.80;;;;;;5025439;28;20190;-88
2021/08/14 03:56:08;;;;;;;8.77;7.80;;;22.20;73.50;;;;;;5018864;28;20198;-88
2021/08/14 03:58:35;;;;;;;8.70;7.88;;;22.10;73.50;;;;;;5034046;28;20281;-88
2021/08/14 04:01:01;;;;;;;8.45;7.82;;;22.10;73.70;;;;;;5018339;28;20243;-88
2021/08/14 04:03:27;;;;;;;8.18;7.57;;;22.10;73.70;;;;;;5019175;28;20193;-88
2021/08/14 04:05:53;;;;;;;8.15;7.45;;;22.10;73.50;;;;;;5017811;28;20576;-88
2021/08/14 04:08:19;;;;;;;9.27;8.43;;;22.10;73.90;;;;;;5018243;28;20181;-88
2021/08/14 04:10:45;;;;;;;8.30;7.50;;;22.10;72.90;;;;;;5018518;28;20224;-88
2021/08/14 04:13:10;;;;;;;9.10;7.93;;;22.10;73.20;;;;;;5019237;28;20193;-88
2021/08/14 04:15:36;;;;;;;8.80;7.63;;;21.90;73.70;;;;;;5018715;28;20249;-88
2021/08/14 04:18:02;;;;;;;9.13;8.23;;;21.90;72.90;;;;;;5023255;28;20193;-88
2021/08/14 04:20:28;;;;;;;8.55;7.70;;;21.60;73.70;;;;;;5035912;28;20213;-88
2021/08/14 04:22:54;;;;;;;8.85;8.07;;;21.50;74.90;;;;;;5022525;28;20676;-89
2021/08/14 04:25:20;;;;;;;8.95;7.53;;;21.50;74.90;;;;;;5024803;28;20194;-88
2021/08/14 04:27:45;;;;;;;8.65;7.45;;;21.60;75.60;;;;;;5023358;28;20236;-88
2021/08/14 04:30:12;;;;;;;9.68;8.60;;;21.70;74.80;;;;;;5023888;28;20241;-88
2021/08/14 04:32:37;;;;;;;9.27;8.10;;;21.50;74.90;;;;;;5038964;28;20224;-89
2021/08/14 04:35:09;;;;;;;8.30;7.47;;;21.40;76.00;;;;;;5022887;28;20279;-88
2021/08/14 04:37:35;;;;;;;8.48;7.60;;;21.50;75.90;;;;;;5037687;28;20201;-88
2021/08/14 04:40:03;;;;;;;8.48;7.72;;;21.60;75.30;;;;;;5023384;28;20217;-88
2021/08/14 04:42:29;;;;;;;8.23;7.43;;;21.50;75.50;;;;;;5021796;28;20640;-88
2021/08/14 04:44:55;;;;;;;8.10;7.35;;;21.60;75.50;;;;;;5023440;28;20197;-89
2021/08/14 04:47:21;;;;;;;11.15;7.55;;;21.70;75.30;;;;;;5038450;28;20644;-86
2021/08/14 04:49:47;;;;;;;8.88;7.55;;;21.70;75.00;;;;;;5022905;28;20660;-86
2021/08/14 04:52:12;;;;;;;8.02;7.32;;;21.80;74.70;;;;;;5023233;28;20304;-86
2021/08/14 04:54:38;;;;;;;7.55;6.93;;;21.80;74.40;;;;;;5023314;28;20200;-85
2021/08/14 04:57:04;;;;;;;8.00;7.30;;;21.80;74.20;;;;;;5023709;28;20205;-85
2021/08/14 04:59:30;;;;;;;8.43;7.20;;;21.70;74.10;;;;;;5022932;28;20213;-85
2021/08/14 05:01:55;;;;;;;7.70;7.10;;;21.70;74.60;;;;;;5021893;28;20228;-86
2021/08/14 05:04:23;;;;;;;8.63;7.88;;;21.60;74.80;;;;;;5019219;28;20281;-85
2021/08/14 05:06:49;;;;;;;8.27;7.60;;;21.70;75.00;;;;;;5018719;28;20188;-87
2021/08/14 05:09:16;;;;;;;8.23;7.47;;;21.70;74.90;;;;;;5031877;28;20265;-86
2021/08/14 05:11:41;;;;;;;9.75;8.43;;;21.70;74.80;;;;;;5032222;28;20225;-86
2021/08/14 05:14:07;;;;;;;8.50;7.70;;;21.50;76.00;;;;;;5019044;28;20190;-87
2021/08/14 05:16:34;;;;;;;9.85;7.93;;;21.30;77.20;;;;;;5021109;28;20193;-88
2021/08/14 05:19:00;;;;;;;8.45;7.45;;;21.30;78.00;;;;;;5020394;28;20193;-86
2021/08/14 05:21:26;;;;;;;9.38;7.45;;;21.30;77.80;;;;;;5021966;28;20277;-86
2021/08/14 05:23:51;;;;;;;8.45;7.75;;;21.30;77.50;;;;;;5021515;28;20687;-85
2021/08/14 05:26:17;;;;;;;8.75;8.10;;;21.50;77.20;;;;;;5022403;28;20198;-85
2021/08/14 05:28:43;;;;;;;8.63;7.88;;;21.50;76.90;;;;;;5024062;28;20194;-85
2021/08/14 05:31:09;;;;;;;11.18;8.30;;;21.50;76.80;;;;;;5023205;28;20216;-86
2021/08/14 05:33:34;;;;;;;7.80;7.10;;;21.50;77.20;;;;;;5023458;28;20197;-86
2021/08/14 05:36:00;;;;;;;8.75;8.05;;;21.20;78.20;;;;;;5021942;28;20201;-86
2021/08/14 05:38:26;;;;;;;7.53;6.90;;;21.10;79.00;;;;;;5023692;28;20618;-86
2021/08/14 05:40:51;;;;;;;7.80;7.20;;;21.30;79.20;;;;;;5022789;28;20233;-87
2021/08/14 05:43:17;;;;;;;7.88;7.13;;;21.30;79.00;;;;;;5036204;28;20208;-87
2021/08/14 05:45:43;;;;;;;8.55;7.93;;;21.50;78.60;;;;;;5023316;28;20213;-86
2021/08/14 05:48:10;;;;;;;8.90;7.95;;;21.50;77.90;;;;;;5022856;28;20210;-86
2021/08/14 05:50:35;;;;;;;8.02;7.32;;;21.70;78.10;;;;;;5033529;28;20580;-85
2021/08/14 05:53:01;;;;;;;9.63;8.82;;;21.80;77.80;;;;;;5023517;28;20796;-86
2021/08/14 05:55:27;;;;;;;9.30;8.50;;;21.80;78.30;;;;;;5021081;28;20561;-87
2021/08/14 05:57:54;;;;;;;10.20;8.77;;;21.80;78.30;;;;;;5022079;28;20217;-87
2021/08/14 06:00:21;;;;;;;9.93;9.13;;;21.90;78.60;;;;;;5018934;28;20241;-85
2021/08/14 06:02:47;;;;;;;10.48;9.55;;;22.00;78.70;;;;;;5021906;28;20197;-87
2021/08/14 06:05:13;;;;;;;10.65;9.85;;;22.00;78.60;;;;;;5022280;28;20200;-88
2021/08/14 06:07:39;;;;;;;10.13;9.13;;;22.10;79.40;;;;;;5023932;28;20189;-86
2021/08/14 06:10:06;;;;;;;9.98;9.07;;;22.10;79.40;;;;;;5020449;28;20688;-86
2021/08/14 06:12:32;;;;;;;11.52;9.95;;;22.10;78.90;;;;;;5020011;28;21082;-86
2021/08/14 06:14:57;;;;;;;10.07;9.15;;;22.10;79.10;;;;;;5021434;28;20193;-86
2021/08/14 06:17:23;;;;;;;9.85;8.73;;;22.10;79.20;;;;;;5023605;28;20261;-86
2021/08/14 06:19:49;;;;;;;10.23;9.32;;;22.20;79.10;;;;;;5021551;28;20736;-87
2021/08/14 06:22:14;;;;;;;10.30;9.40;;;22.20;79.20;;;;;;5019684;28;20240;-86
2021/08/14 06:24:40;;;;;;;9.90;8.95;;;22.30;79.10;;;;;;5017140;28;20193;-86
2021/08/14 06:27:06;;;;;;;9.95;9.05;;;22.40;78.80;;;;;;5015757;28;20691;-86
2021/08/14 06:29:32;;;;;;;10.77;9.73;;;22.50;78.50;;;;;;5017761;28;20239;-86
2021/08/14 06:31:58;;;;;;;10.63;9.63;;;22.60;77.80;;;;;;5016936;28;20206;-86
2021/08/14 06:34:23;;;;;;;9.82;9.02;;;22.70;78.00;;;;;;5018155;28;20220;-88
2021/08/14 06:36:49;;;;;;;10.00;9.10;;;22.80;78.00;;;;;;5018639;28;20185;-86
2021/08/14 06:39:15;;;;;;;10.98;10.07;;;22.90;77.70;;;;;;5016869;28;20852;-86
2021/08/14 06:41:41;;;;;;;10.88;9.88;;;22.80;77.40;;;;;;5016842;28;20285;-87
2021/08/14 06:44:06;;;;;;;11.98;9.88;;;22.60;77.50;;;;;;5015843;28;20198;-85
2021/08/14 06:46:32;;;;;;;10.63;9.63;;;22.50;76.40;;;;;;5018692;28;20189;-86
2021/08/14 06:48:59;;;;;;;9.98;8.98;;;22.40;76.20;;;;;;5018673;28;20177;-89
2021/08/14 06:51:25;;;;;;;10.85;10.02;;;22.50;76.20;;;;;;5018778;28;20609;-86
2021/08/14 06:53:50;;;;;;;11.23;10.07;;;22.50;78.40;;;;;;5015656;28;20216;-88
2021/08/14 06:56:16;;;;;;;11.82;9.50;;;22.60;79.30;;;;;;5016894;28;20209;-88
2021/08/14 06:58:42;;;;;;;10.57;9.68;;;22.60;79.20;;;;;;5027412;28;20197;-86
2021/08/14 07:01:07;;;;;;;10.95;9.90;;;22.70;78.50;;;;;;5025514;28;20285;-87
2021/08/14 07:03:33;;;;;;;12.32;11.13;;;22.80;77.30;;;;;;5018770;28;20201;-88
2021/08/14 07:05:59;;;;;;;10.85;9.77;;;22.90;76.10;;;;;;5018033;28;20244;-87
2021/08/14 07:08:25;;;;;;;11.18;9.20;;;23.00;76.00;;;;;;5019552;28;20190;-88
2021/08/14 07:10:50;;;;;;;11.07;10.10;;;22.90;76.00;;;;;;5019481;28;20304;-87
2021/08/14 07:13:16;;;;;;;11.32;10.32;;;22.90;77.10;;;;;;5019294;28;20217;-87
2021/08/14 07:15:42;;;;;;;10.55;9.65;;;22.90;77.20;;;;;;5015912;28;20197;-88
2021/08/14 07:18:07;;;;;;;10.10;9.40;;;23.00;76.50;;;;;;5015267;28;20244;-88
2021/08/14 07:20:33;;;;;;;10.40;9.43;;;23.20;77.00;;;;;;5018328;28;20228;-88
2021/08/14 07:22:59;;;;;;;9.95;9.18;;;23.30;75.30;;;;;;5018575;28;20694;-87
2021/08/14 07:25:25;;;;;;;10.45;9.65;;;23.50;75.10;;;;;;5034120;28;20219;-86
2021/08/14 07:27:51;;;;;;;10.23;9.43;;;23.50;75.00;;;;;;5019337;28;20197;-86
2021/08/14 07:30:17;;;;;;;9.75;8.90;;;23.60;74.80;;;;;;5022420;28;20213;-88
2021/08/14 07:32:43;;;;;;;9.98;9.00;;;23.70;74.80;;;;;;5022574;28;20674;-86
2021/08/14 07:35:09;;;;;;;9.77;8.77;;;23.80;74.70;;;;;;5023618;28;20261;-87
2021/08/14 07:37:35;;;;;;;10.55;9.57;;;24.00;74.40;;;;;;5030903;28;20228;-85
2021/08/14 07:40:01;;;;;;;13.27;10.38;;;24.10;74.00;;;;;;5035150;28;20225;-86
2021/08/14 07:42:28;;;;;;;11.48;10.48;;;24.00;73.00;;;;;;5032905;28;20257;-86
2021/08/14 07:44:55;;;;;;;11.45;10.18;;;24.00;73.40;;;;;;5021211;28;20293;-88
2021/08/14 07:47:20;;;;;;;11.40;10.38;;;24.00;73.40;;;;;;5019944;28;20197;-88
2021/08/14 07:49:46;;;;;;;10.88;9.85;;;24.10;74.30;;;;;;5020685;28;20204;-88
2021/08/14 07:52:12;;;;;;;11.02;10.00;;;24.20;72.70;;;;;;5021885;28;20198;-88
2021/08/14 07:54:37;;;;;;;11.32;10.25;;;24.20;72.90;;;;;;5025980;28;20187;-87
2021/08/14 07:57:03;;;;;;;11.18;10.15;;;24.30;72.70;;;;;;5024282;28;20216;-88
2021/08/14 07:59:29;;;;;;;11.32;10.43;;;24.40;72.10;;;;;;5022880;28;20749;-88
2021/08/14 08:01:56;;;;;;;10.68;9.88;;;24.40;71.40;;;;;;5039410;28;20215;-87
2021/08/14 08:04:21;;;;;;;10.73;9.63;;;24.50;70.30;;;;;;5038773;28;20181;-87
2021/08/14 08:06:47;;;;;;;11.38;10.35;;;24.60;70.40;;;;;;5023892;28;20221;-87
2021/08/14 08:09:13;;;;;;;11.18;10.18;;;24.80;69.80;;;;;;5025772;28;20235;-89
2021/08/14 08:11:38;;;;;;;11.18;10.18;;;24.90;70.40;;;;;;5024777;28;20213;-87
2021/08/14 08:14:04;;;;;;;11.43;10.57;;;25.10;69.20;;;;;;5025269;28;20212;-87
2021/08/14 08:16:30;;;;;;;11.38;10.18;;;25.10;68.60;;;;;;5026232;28;20208;-87
2021/08/14 08:18:55;;;;;;;10.27;9.38;;;25.10;68.60;;;;;;5039832;28;20189;-88
2021/08/14 08:21:21;;;;;;;10.98;9.98;;;25.30;67.90;;;;;;5024118;28;20213;-87
2021/08/14 08:23:47;;;;;;;10.13;9.32;;;25.50;68.50;;;;;;5025243;28;20193;-88
2021/08/14 08:26:14;;;;;;;11.10;9.30;;;25.50;64.80;;;;;;5036966;28;20232;-86
2021/08/14 08:28:39;;;;;;;10.27;9.43;;;25.60;64.60;;;;;;5024963;28;20258;-86
2021/08/14 08:31:05;;;;;;;10.25;9.45;;;25.80;65.70;;;;;;5023822;28;20364;-87
2021/08/14 08:33:31;;;;;;;9.77;8.70;;;25.80;64.30;;;;;;5024828;28;20265;-89
2021/08/14 08:35:56;;;;;;;10.25;9.48;;;25.90;64.80;;;;;;5024882;28;20189;-90
2021/08/14 08:38:22;;;;;;;10.32;9.27;;;25.90;64.70;;;;;;5021651;28;20198;-86
2021/08/14 08:40:48;;;;;;;10.82;9.93;;;26.00;64.40;;;;;;5014500;28;20381;-87
2021/08/14 08:43:14;;;;;;;12.10;10.00;;;26.20;64.10;;;;;;5023272;28;20182;-88
2021/08/14 08:45:40;;;;;;;10.43;9.63;;;26.20;62.80;;;;;;5024680;28;20181;-86
2021/08/14 08:48:07;;;;;;;10.82;9.90;;;26.30;62.50;;;;;;5025494;28;20192;-86
2021/08/14 08:50:35;;;;;;;10.93;9.68;;;26.40;63.10;;;;;;5024157;28;20584;-89
2021/08/14 08:53:04;;;;;;;11.00;10.00;;;26.60;62.00;;;;;;5024739;28;20221;-89
2021/08/14 08:55:33;;;;;;;16.00;14.90;;;26.80;61.00;;;;;;5024022;28;20229;-89
2021/08/14 08:57:59;;;;;;;10.48;9.57;;;27.00;61.20;;;;;;5022969;28;20190;-88
2021/08/14 09:00:25;;;;;;;10.88;9.80;;;27.20;60.70;;;;;;5023716;28;20446;-88
2021/08/14 09:03:12;;;;;;;10.25;9.35;;;27.30;61.50;;;;;;5023529;28;20667;-88
2021/08/14 09:05:46;;;;;;;10.35;9.40;;;27.40;57.40;;;;;;5013882;28;20194;-88
2021/08/14 09:08:12;;;;;;;10.73;9.80;;;27.30;60.30;;;;;;5032623;28;20201;-88
2021/08/14 09:10:38;;;;;;;10.70;9.70;;;27.60;59.70;;;;;;5027515;28;20253;-88
2021/08/14 09:13:20;;;;;;;10.93;9.98;;;27.80;58.40;;;;;;5035427;28;20186;-90
2021/08/14 09:15:47;;;;;;;11.95;10.48;;;27.80;57.00;;;;;;5033117;28;20177;-89
2021/08/14 09:18:15;;;;;;;11.45;10.23;;;27.80;58.20;;;;;;5026916;28;20185;-89
2021/08/14 09:20:53;;;;;;;10.90;9.95;;;28.00;58.70;;;;;;5024769;28;20308;-89
2021/08/14 09:23:22;;;;;;;10.20;9.02;;;28.10;57.20;;;;;;5022755;28;20193;-88
2021/08/14 09:25:52;;;;;;;9.85;9.00;;;28.20;56.60;;;;;;5023567;28;20208;-90
2021/08/14 09:28:29;;;;;;;10.40;9.43;;;28.30;53.60;;;;;;5022983;28;20169;-88
2021/08/14 09:30:58;;;;;;;10.52;9.40;;;28.30;54.30;;;;;;5023843;28;20197;-89
2021/08/14 09:33:31;;;;;;;13.43;10.02;;;28.20;55.30;;;;;;5022472;28;20189;-88
2021/08/14 09:35:59;;;;;;;10.68;9.68;;;28.20;54.40;;;;;;5023049;28;20272;-88
2021/08/14 09:38:37;;;;;;;10.60;9.63;;;28.40;55.40;;;;;;5024064;28;20205;-89
2021/08/14 09:41:13;;;;;;;9.95;9.15;;;28.60;54.00;;;;;;5017856;28;20290;-88
2021/08/14 09:43:40;;;;;;;9.73;8.95;;;28.60;52.90;;;;;;5020476;28;20260;-88
2021/08/14 09:46:06;;;;;;;9.18;8.38;;;28.80;52.50;;;;;;5024000;28;20208;-88
2021/08/14 09:48:32;;;;;;;9.55;8.82;;;29.00;51.40;;;;;;5023631;28;20253;-87
2021/08/14 09:50:59;;;;;;;9.73;8.77;;;29.10;51.40;;;;;;5018654;28;20210;-88
2021/08/14 09:53:27;;;;;;;9.90;9.13;;;29.30;49.80;;;;;;5022759;28;20227;-88
2021/08/14 09:56:05;;;;;;;11.55;8.98;;;29.40;49.60;;;;;;5022769;28;20231;-89
2021/08/14 09:58:32;;;;;;;9.43;8.65;;;29.70;48.70;;;;;;5022722;28;20200;-89
2021/08/14 10:01:00;;;;;;;9.75;8.82;;;30.10;48.50;;;;;;5019172;28;20275;-89
2021/08/14 10:03:27;;;;;;;9.70;9.00;;;30.30;47.80;;;;;;5019801;28;20186;-89
2021/08/14 10:05:54;;;;;;;10.95;9.82;;;30.30;48.10;;;;;;5019897;28;20605;-89
2021/08/14 10:08:21;;;;;;;9.75;8.90;;;30.30;47.20;;;;;;5021940;28;20184;-89
2021/08/14 10:10:47;;;;;;;9.57;8.77;;;30.40;47.10;;;;;;5021146;28;20814;-89
2021/08/14 10:13:14;;;;;;;9.57;8.77;;;30.60;46.40;;;;;;5021681;28;20197;-89
2021/08/14 10:15:40;;;;;;;9.95;9.13;;;30.70;45.00;;;;;;5021656;28;20196;-90
2021/08/14 10:18:06;;;;;;;10.60;9.57;;;30.90;45.20;;;;;;5037113;28;20186;-89
2021/08/14 10:20:32;;;;;;;9.98;9.10;;;31.00;45.50;;;;;;5019769;28;20233;-89
2021/08/14 10:23:05;;;;;;;14.73;9.48;;;31.20;45.90;;;;;;5022106;28;20186;-89
2021/08/14 10:25:32;;;;;;;9.93;9.13;;;31.40;44.70;;;;;;5022768;28;20772;-89
2021/08/14 10:28:00;;;;;;;9.88;9.10;;;31.60;43.90;;;;;;5021172;28;20178;-89
2021/08/14 10:30:36;;;;;;;12.85;9.88;;;31.30;44.90;;;;;;5023676;28;20275;-89
2021/08/14 10:33:04;;;;;;;9.50;8.80;;;31.50;44.80;;;;;;5024069;28;20223;-89
2021/08/14 10:35:30;;;;;;;9.52;8.63;;;31.60;45.70;;;;;;5020675;28;20194;-89
2021/08/14 10:37:56;;;;;;;9.65;8.63;;;31.70;45.10;;;;;;5022165;28;20279;-90
2021/08/14 10:40:22;;;;;;;10.23;9.23;;;31.60;43.60;;;;;;5019790;28;20213;-88
2021/08/14 10:42:54;;;;;;;10.00;9.00;;;31.70;44.90;;;;;;5017594;28;20236;-89
2021/08/14 10:45:19;;;;;;;10.48;9.38;;;31.90;43.60;;;;;;5009839;28;20182;-89
2021/08/14 10:47:47;;;;;;;9.70;8.80;;;32.10;42.80;;;;;;5021554;28;20200;-87
2021/08/14 10:50:31;;;;;;;9.07;8.27;;;31.90;41.70;;;;;;5020743;28;20224;-87
2021/08/14 10:53:12;;;;;;;9.32;8.60;;;31.70;42.50;;;;;;5019881;28;20188;-88
2021/08/14 10:55:41;;;;;;;9.43;8.68;;;31.80;42.10;;;;;;5017162;28;20660;-88
2021/08/14 10:58:32;;;;;;;9.45;8.68;;;31.90;42.40;;;;;;5017737;28;20189;-88
2021/08/14 11:01:03;;;;;;;9.57;8.27;;;32.10;42.00;;;;;;5012558;28;20229;-88
2021/08/14 11:03:35;;;;;;;16.25;8.18;;;32.20;41.50;;;;;;5018931;28;20584;-88
2021/08/14 11:06:27;;;;;;;8.88;7.97;;;32.60;41.00;;;;;;5020414;28;20580;-88
2021/08/14 11:09:17;;;;;;;11.60;8.30;;;32.70;40.30;;;;;;5018813;28;20194;-87
2021/08/14 11:12:02;;;;;;;9.00;8.30;;;32.80;39.20;;;;;;5018074;28;20343;-88
2021/08/14 11:14:43;;;;;;;9.43;8.57;;;32.90;40.00;;;;;;5020003;28;20194;-89
2021/08/14 11:17:11;;;;;;;8.55;7.85;;;32.70;40.30;;;;;;5017646;28;20207;-89
2021/08/14 11:19:53;;;;;;;9.52;8.75;;;33.00;39.90;;;;;;5020081;28;20206;-88
2021/08/14 11:22:30;;;;;;;9.25;8.30;;;33.10;38.00;;;;;;5017993;28;20641;-89
2021/08/14 11:25:04;;;;;;;10.20;8.20;;;33.30;38.20;;;;;;5019758;28;20599;-89
2021/08/14 11:27:33;;;;;;;8.45;7.75;;;33.50;37.10;;;;;;5012580;28;20184;-87
2021/08/14 11:30:03;;;;;;;8.63;8.02;;;33.20;37.40;;;;;;5035564;28;20220;-87
2021/08/14 11:32:30;;;;;;;8.85;8.15;;;33.30;38.10;;;;;;5033952;28;20206;-89
2021/08/14 11:34:56;;;;;;;9.73;8.68;;;33.50;38.50;;;;;;5033410;28;20452;-89
2021/08/14 11:37:22;;;;;;;9.35;8.65;;;33.60;38.20;;;;;;5035635;28;20205;-90
2021/08/14 11:39:56;;;;;;;9.38;8.55;;;33.60;38.80;;;;;;5001199;28;20292;-88
2021/08/14 11:42:26;;;;;;;9.18;8.55;;;34.10;38.60;;;;;;5019013;28;20676;-88
2021/08/14 11:44:57;;;;;;;9.70;8.90;;;34.00;37.30;;;;;;5017029;28;20220;-89
2021/08/14 11:47:37;;;;;;;9.52;8.90;;;34.00;37.80;;;;;;5034727;28;20189;-89
2021/08/14 11:50:13;;;;;;;9.63;8.93;;;34.10;37.10;;;;;;5026678;28;20201;-89
2021/08/14 11:52:39;;;;;;;9.82;8.95;;;34.40;35.90;;;;;;5026929;28;20256;-89
2021/08/14 11:55:11;;;;;;;10.35;9.50;;;34.70;36.30;;;;;;5036894;28;20275;-89
2021/08/14 11:57:39;;;;;;;10.25;9.45;;;34.90;37.00;;;;;;5023065;28;20205;-89
2021/08/14 12:00:17;;;;;;;10.40;9.57;;;35.10;36.50;;;;;;5014552;28;20701;-89
2021/08/14 12:02:44;;;;;;;10.60;9.77;;;35.20;36.30;;;;;;5019991;28;20213;-88
2021/08/14 12:05:10;;;;;;;10.48;9.32;;;34.90;36.40;;;;;;5020529;28;20193;-90
2021/08/14 12:07:35;;;;;;;11.57;10.30;;;35.30;36.50;;;;;;5016697;28;20194;-89
2021/08/14 12:10:01;;;;;;;10.85;10.00;;;35.40;36.90;;;;;;5015975;28;20265;-90
2021/08/14 12:12:28;;;;;;;12.55;11.32;;;35.40;36.20;;;;;;5020714;28;20196;-90
2021/08/14 12:14:54;;;;;;;11.40;10.55;;;35.70;35.70;;;;;;5019547;28;20224;-89
2021/08/14 12:17:20;;;;;;;11.20;10.20;;;35.60;36.40;;;;;;5013835;28;20216;-88
2021/08/14 12:19:47;;;;;;;10.27;9.25;;;35.70;35.80;;;;;;5018948;28;20221;-87
2021/08/14 12:22:16;;;;;;;9.93;9.13;;;35.60;36.20;;;;;;5017565;28;20229;-88
2021/08/14 12:24:44;;;;;;;10.48;9.75;;;35.50;36.60;;;;;;5017890;28;20193;-89
2021/08/14 12:27:22;;;;;;;11.32;10.23;;;35.80;36.90;;;;;;5017137;28;20276;-88
2021/08/14 12:29:48;;;;;;;11.00;10.00;;;35.90;36.40;;;;;;5016512;28;20182;-88
2021/08/14 12:32:14;;;;;;;14.90;9.75;;;35.80;36.10;;;;;;5018773;28;20227;-89
2021/08/14 12:34:41;;;;;;;10.85;9.95;;;36.10;37.00;;;;;;5023422;28;20217;-88
2021/08/14 12:37:16;;;;;;;10.65;9.77;;;36.20;36.50;;;;;;5024656;28;20165;-88
2021/08/14 12:39:44;;;;;;;11.73;10.05;;;35.90;36.80;;;;;;5025568;28;20209;-89
2021/08/14 12:42:20;;;;;;;10.98;10.02;;;35.80;37.10;;;;;;5023089;28;20699;-90